sensor_id;sensor_type;location;lat;lon;timestamp;pressure;altitude;pressure_sealevel;temperature;humidity
76285;BME280;65096;50.998;7.098;2023-03-05T00:01:39;101490.28;;;4.60;57.73
76285;BME280;65096;50.998;7.098;2023-03-05T00:04:09;101482.63;;;4.60;56.97
76285;BME280;65096;50.998;7.098;2023-03-05T00:06:37;101475.84;;;4.61;57.61
76285;BME280;65096;50.998;7.098;2023-03-05T00:09:04;101483.75;;;4.67;57.53
76285;BME280;65096;50.998;7.098;2023-03-05T00:11:31;101473.66;;;4.70;57.77
76285;BME280;65096;50.998;7.098;2023-03-05T00:14:02;101477.09;;;4.70;57.40
76285;BME280;65096;50.998;7.098;2023-03-05T00:16:31;101480.47;;;4.69;57.69
76285;BME280;65096;50.998;7.098;2023-03-05T00:18:59;101475.28;;;4.68;57.67
76285;BME280;65096;50.998;7.098;2023-03-05T00:21:27;101477.81;;;4.68;58.25
76285;BME280;65096;50.998;7.098;2023-03-05T00:23:55;101476.84;;;4.64;58.12
76285;BME280;65096;50.998;7.098;2023-03-05T00:26:24;101467.09;;;4.56;58.52
76285;BME280;65096;50.998;7.098;2023-03-05T00:28:51;101467.94;;;4.55;58.90
76285;BME280;65096;50.998;7.098;2023-03-05T00:31:22;101468.06;;;4.58;58.73
76285;BME280;65096;50.998;7.098;2023-03-05T00:33:50;101479.13;;;4.58;58.56
76285;BME280;65096;50.998;7.098;2023-03-05T00:36:17;101478.28;;;4.58;58.50
76285;BME280;65096;50.998;7.098;2023-03-05T00:38:44;101469.84;;;4.60;59.07
76285;BME280;65096;50.998;7.098;2023-03-05T00:41:11;101475.72;;;4.58;58.90
76285;BME280;65096;50.998;7.098;2023-03-05T00:43:38;101469.06;;;4.61;58.83
76285;BME280;65096;50.998;7.098;2023-03-05T00:46:04;101471.47;;;4.58;59.11
76285;BME280;65096;50.998;7.098;2023-03-05T00:48:33;101470.66;;;4.59;58.90
76285;BME280;65096;50.998;7.098;2023-03-05T00:50:59;101465.50;;;4.58;58.96
76285;BME280;65096;50.998;7.098;2023-03-05T00:53:26;101459.50;;;4.57;59.26
76285;BME280;65096;50.998;7.098;2023-03-05T00:55:53;101457.44;;;4.49;59.24
76285;BME280;65096;50.998;7.098;2023-03-05T00:58:20;101454.81;;;4.47;59.26
76285;BME280;65096;50.998;7.098;2023-03-05T01:00:46;101454.94;;;4.50;59.12
76285;BME280;65096;50.998;7.098;2023-03-05T01:03:14;101453.25;;;4.51;59.19
76285;BME280;65096;50.998;7.098;2023-03-05T01:05:43;101449.03;;;4.51;58.75
76285;BME280;65096;50.998;7.098;2023-03-05T01:08:10;101440.50;;;4.51;59.27
76285;BME280;65096;50.998;7.098;2023-03-05T01:10:37;101441.50;;;4.54;59.13
76285;BME280;65096;50.998;7.098;2023-03-05T01:13:04;101435.63;;;4.57;58.69
76285;BME280;65096;50.998;7.098;2023-03-05T01:15:30;101437.34;;;4.56;58.83
76285;BME280;65096;50.998;7.098;2023-03-05T01:17:57;101435.63;;;4.57;59.11
76285;BME280;65096;50.998;7.098;2023-03-05T01:20:24;101441.75;;;4.60;58.89
76285;BME280;65096;50.998;7.098;2023-03-05T01:22:52;101440.09;;;4.61;58.59
76285;BME280;65096;50.998;7.098;2023-03-05T01:25:19;101431.22;;;4.53;58.96
76285;BME280;65096;50.998;7.098;2023-03-05T01:27:46;101430.03;;;4.45;58.62
76285;BME280;65096;50.998;7.098;2023-03-05T01:30:13;101425.06;;;4.48;59.42
76285;BME280;65096;50.998;7.098;2023-03-05T01:32:41;101427.16;;;4.37;58.92
76285;BME280;65096;50.998;7.098;2023-03-05T01:35:14;101420.28;;;4.36;59.50
76285;BME280;65096;50.998;7.098;2023-03-05T01:37:41;101414.41;;;4.37;59.27
76285;BME280;65096;50.998;7.098;2023-03-05T01:40:12;101412.69;;;4.38;59.48
76285;BME280;65096;50.998;7.098;2023-03-05T01:42:44;101408.41;;;4.37;58.92
76285;BME280;65096;50.998;7.098;2023-03-05T01:45:13;101411.91;;;4.39;59.15
76285;BME280;65096;50.998;7.098;2023-03-05T01:47:40;101408.53;;;4.40;58.47
76285;BME280;65096;50.998;7.098;2023-03-05T01:50:09;101399.59;;;4.30;58.96
76285;BME280;65096;50.998;7.098;2023-03-05T01:52:40;101406.81;;;4.39;58.96
76285;BME280;65096;50.998;7.098;2023-03-05T01:55:12;101404.97;;;4.36;58.66
76285;BME280;65096;50.998;7.098;2023-03-05T01:57:43;101398.69;;;4.30;59.10
76285;BME280;65096;50.998;7.098;2023-03-05T02:00:15;101397.78;;;4.28;59.01
76285;BME280;65096;50.998;7.098;2023-03-05T02:02:45;101374.16;;;4.13;59.24
76285;BME280;65096;50.998;7.098;2023-03-05T02:05:17;101395.78;;;4.21;59.38
76285;BME280;65096;50.998;7.098;2023-03-05T02:07:44;101390.47;;;4.16;59.30
76285;BME280;65096;50.998;7.098;2023-03-05T02:10:19;101387.72;;;4.12;59.48
76285;BME280;65096;50.998;7.098;2023-03-05T02:12:47;101385.72;;;4.05;59.67
76285;BME280;65096;50.998;7.098;2023-03-05T02:15:15;101380.66;;;4.06;59.36
76285;BME280;65096;50.998;7.098;2023-03-05T02:17:42;101381.63;;;4.08;59.64
76285;BME280;65096;50.998;7.098;2023-03-05T02:20:11;101379.25;;;4.13;59.10
76285;BME280;65096;50.998;7.098;2023-03-05T02:22:40;101374.34;;;4.17;59.63
76285;BME280;65096;50.998;7.098;2023-03-05T02:25:17;101371.66;;;4.14;59.43
76285;BME280;65096;50.998;7.098;2023-03-05T02:27:51;101372.06;;;4.04;60.21
76285;BME280;65096;50.998;7.098;2023-03-05T02:30:20;101364.53;;;4.07;59.39
76285;BME280;65096;50.998;7.098;2023-03-05T02:32:47;101363.13;;;4.14;59.74
76285;BME280;65096;50.998;7.098;2023-03-05T02:35:13;101352.13;;;4.15;59.53
76285;BME280;65096;50.998;7.098;2023-03-05T02:37:41;101358.91;;;4.14;59.63
76285;BME280;65096;50.998;7.098;2023-03-05T02:40:09;101358.91;;;4.14;59.09
76285;BME280;65096;50.998;7.098;2023-03-05T02:42:36;101359.84;;;4.16;59.15
76285;BME280;65096;50.998;7.098;2023-03-05T02:45:04;101354.75;;;4.16;59.58
76285;BME280;65096;50.998;7.098;2023-03-05T02:47:31;101349.63;;;4.16;59.57
76285;BME280;65096;50.998;7.098;2023-03-05T02:49:58;101345.53;;;4.20;59.65
76285;BME280;65096;50.998;7.098;2023-03-05T02:52:25;101348.75;;;4.16;59.23
76285;BME280;65096;50.998;7.098;2023-03-05T02:54:54;101336.19;;;4.20;59.35
76285;BME280;65096;50.998;7.098;2023-03-05T02:57:21;101338.91;;;4.25;59.15
76285;BME280;65096;50.998;7.098;2023-03-05T02:59:47;101341.47;;;4.25;59.16
76285;BME280;65096;50.998;7.098;2023-03-05T03:02:14;101333.44;;;4.16;59.82
76285;BME280;65096;50.998;7.098;2023-03-05T03:04:41;101334.44;;;4.19;59.59
76285;BME280;65096;50.998;7.098;2023-03-05T03:07:08;101339.09;;;4.09;59.57
76285;BME280;65096;50.998;7.098;2023-03-05T03:09:34;101336.47;;;4.07;59.96
76285;BME280;65096;50.998;7.098;2023-03-05T03:12:03;101327.22;;;4.09;59.77
76285;BME280;65096;50.998;7.098;2023-03-05T03:14:31;101324.72;;;4.11;59.36
76285;BME280;65096;50.998;7.098;2023-03-05T03:16:57;101323.16;;;4.14;59.79
76285;BME280;65096;50.998;7.098;2023-03-05T03:19:24;101316.22;;;4.10;59.93
76285;BME280;65096;50.998;7.098;2023-03-05T03:21:51;101319.75;;;4.14;59.50
76285;BME280;65096;50.998;7.098;2023-03-05T03:24:19;101316.59;;;4.19;58.95
76285;BME280;65096;50.998;7.098;2023-03-05T03:26:46;101308.88;;;4.18;58.99
76285;BME280;65096;50.998;7.098;2023-03-05T03:29:15;101319.75;;;4.14;59.18
76285;BME280;65096;50.998;7.098;2023-03-05T03:31:43;101312.91;;;4.13;59.35
76285;BME280;65096;50.998;7.098;2023-03-05T03:34:10;101316.13;;;4.09;59.16
76285;BME280;65096;50.998;7.098;2023-03-05T03:36:37;101300.81;;;4.09;59.65
76285;BME280;65096;50.998;7.098;2023-03-05T03:39:03;101297.88;;;4.00;59.82
76285;BME280;65096;50.998;7.098;2023-03-05T03:41:30;101296.09;;;3.97;59.61
76285;BME280;65096;50.998;7.098;2023-03-05T03:43:57;101297.69;;;3.95;59.15
76285;BME280;65096;50.998;7.098;2023-03-05T03:46:25;101292.78;;;4.00;59.35
76285;BME280;65096;50.998;7.098;2023-03-05T03:48:52;101290.28;;;4.01;59.66
76285;BME280;65096;50.998;7.098;2023-03-05T03:51:19;101291.22;;;4.03;59.30
76285;BME280;65096;50.998;7.098;2023-03-05T03:53:46;101288.56;;;4.00;59.26
76285;BME280;65096;50.998;7.098;2023-03-05T03:56:14;101291.16;;;4.02;59.25
76285;BME280;65096;50.998;7.098;2023-03-05T03:58:43;101282.69;;;4.03;59.29
76285;BME280;65096;50.998;7.098;2023-03-05T04:01:10;101286.00;;;4.00;59.29
76285;BME280;65096;50.998;7.098;2023-03-05T04:03:38;101284.41;;;4.02;59.29
76285;BME280;65096;50.998;7.098;2023-03-05T04:06:05;101283.50;;;4.02;59.43
76285;BME280;65096;50.998;7.098;2023-03-05T04:08:32;101280.16;;;4.03;59.18
76285;BME280;65096;50.998;7.098;2023-03-05T04:10:59;101272.53;;;4.04;59.55
76285;BME280;65096;50.998;7.098;2023-03-05T04:13:26;101272.59;;;4.06;59.23
76285;BME280;65096;50.998;7.098;2023-03-05T04:15:53;101267.19;;;3.98;59.24
76285;BME280;65096;50.998;7.098;2023-03-05T04:18:21;101271.41;;;3.98;59.13
76285;BME280;65096;50.998;7.098;2023-03-05T04:20:49;101263.03;;;4.00;59.19
76285;BME280;65096;50.998;7.098;2023-03-05T04:23:16;101242.03;;;3.87;58.85
76285;BME280;65096;50.998;7.098;2023-03-05T04:25:43;101257.88;;;3.99;59.35
76285;BME280;65096;50.998;7.098;2023-03-05T04:28:10;101269.00;;;4.01;58.89
76285;BME280;65096;50.998;7.098;2023-03-05T04:30:36;101264.94;;;4.06;58.60
76285;BME280;65096;50.998;7.098;2023-03-05T04:33:03;101264.09;;;4.05;58.79
76285;BME280;65096;50.998;7.098;2023-03-05T04:35:30;101265.78;;;4.05;58.80
76285;BME280;65096;50.998;7.098;2023-03-05T04:37:58;101260.63;;;4.03;58.64
76285;BME280;65096;50.998;7.098;2023-03-05T04:40:25;101253.50;;;3.96;59.08
76285;BME280;65096;50.998;7.098;2023-03-05T04:42:52;101256.00;;;3.95;58.75
76285;BME280;65096;50.998;7.098;2023-03-05T04:45:18;101249.34;;;3.98;58.68
76285;BME280;65096;50.998;7.098;2023-03-05T04:47:45;101254.38;;;3.97;58.87
76285;BME280;65096;50.998;7.098;2023-03-05T04:50:12;101245.72;;;3.93;58.66
76285;BME280;65096;50.998;7.098;2023-03-05T04:52:39;101249.03;;;3.91;58.57
76285;BME280;65096;50.998;7.098;2023-03-05T04:55:09;101238.94;;;3.94;58.98
76285;BME280;65096;50.998;7.098;2023-03-05T04:57:36;101242.16;;;3.90;58.64
76285;BME280;65096;50.998;7.098;2023-03-05T05:00:05;101242.28;;;3.93;58.83
76285;BME280;65096;50.998;7.098;2023-03-05T05:02:35;101231.97;;;3.90;58.76
76285;BME280;65096;50.998;7.098;2023-03-05T05:05:01;101237.28;;;3.94;58.42
76285;BME280;65096;50.998;7.098;2023-03-05T05:07:28;101228.69;;;3.92;58.00
76285;BME280;65096;50.998;7.098;2023-03-05T05:09:57;101234.22;;;3.82;58.24
76285;BME280;65096;50.998;7.098;2023-03-05T05:12:27;101231.34;;;3.75;58.64
76285;BME280;65096;50.998;7.098;2023-03-05T05:14:53;101229.59;;;3.74;58.44
76285;BME280;65096;50.998;7.098;2023-03-05T05:17:20;101225.25;;;3.71;58.85
76285;BME280;65096;50.998;7.098;2023-03-05T05:19:47;101226.84;;;3.69;58.82
76285;BME280;65096;50.998;7.098;2023-03-05T05:22:14;101220.13;;;3.71;58.87
76285;BME280;65096;50.998;7.098;2023-03-05T05:24:41;101221.16;;;3.75;58.64
76285;BME280;65096;50.998;7.098;2023-03-05T05:27:08;101219.38;;;3.74;58.44
76285;BME280;65096;50.998;7.098;2023-03-05T05:29:36;101221.28;;;3.78;58.67
76285;BME280;65096;50.998;7.098;2023-03-05T05:32:03;101216.91;;;3.75;58.84
76285;BME280;65096;50.998;7.098;2023-03-05T05:34:30;101213.56;;;3.76;58.68
76285;BME280;65096;50.998;7.098;2023-03-05T05:36:57;101212.56;;;3.73;59.06
76285;BME280;65096;50.998;7.098;2023-03-05T05:39:23;101212.50;;;3.71;59.26
76285;BME280;65096;50.998;7.098;2023-03-05T05:41:51;101215.91;;;3.72;59.10
76285;BME280;65096;50.998;7.098;2023-03-05T05:44:18;101211.78;;;3.75;59.29
76285;BME280;65096;50.998;7.098;2023-03-05T05:46:46;101214.44;;;3.77;59.06
76285;BME280;65096;50.998;7.098;2023-03-05T05:49:13;101206.56;;;3.72;59.06
76285;BME280;65096;50.998;7.098;2023-03-05T05:51:39;101211.06;;;3.78;58.85
76285;BME280;65096;50.998;7.098;2023-03-05T05:54:06;101204.97;;;3.74;59.24
76285;BME280;65096;50.998;7.098;2023-03-05T05:56:33;101209.13;;;3.72;59.17
76285;BME280;65096;50.998;7.098;2023-03-05T05:58:59;101216.03;;;3.75;59.05
76285;BME280;65096;50.998;7.098;2023-03-05T06:01:28;101214.16;;;3.71;59.19
76285;BME280;65096;50.998;7.098;2023-03-05T06:03:57;101219.19;;;3.69;59.54
76285;BME280;65096;50.998;7.098;2023-03-05T06:06:25;101214.91;;;3.68;59.69
76285;BME280;65096;50.998;7.098;2023-03-05T06:08:54;101207.81;;;3.61;59.93
76285;BME280;65096;50.998;7.098;2023-03-05T06:11:21;101206.97;;;3.61;59.86
76285;BME280;65096;50.998;7.098;2023-03-05T06:13:49;101208.69;;;3.62;59.95
76285;BME280;65096;50.998;7.098;2023-03-05T06:16:18;101201.91;;;3.62;59.61
76285;BME280;65096;50.998;7.098;2023-03-05T06:18:45;101206.19;;;3.63;59.64
76285;BME280;65096;50.998;7.098;2023-03-05T06:21:15;101204.53;;;3.64;59.91
76285;BME280;65096;50.998;7.098;2023-03-05T06:23:43;101207.19;;;3.67;59.86
76285;BME280;65096;50.998;7.098;2023-03-05T06:26:14;101203.84;;;3.68;59.67
76285;BME280;65096;50.998;7.098;2023-03-05T06:28:43;101206.38;;;3.68;59.96
76285;BME280;65096;50.998;7.098;2023-03-05T06:31:12;101205.59;;;3.69;59.88
76285;BME280;65096;50.998;7.098;2023-03-05T06:33:39;101201.16;;;3.65;59.91
76285;BME280;65096;50.998;7.098;2023-03-05T06:36:08;101197.59;;;3.61;60.13
76285;BME280;65096;50.998;7.098;2023-03-05T06:38:37;101202.63;;;3.60;59.73
76285;BME280;65096;50.998;7.098;2023-03-05T06:41:06;101192.50;;;3.61;59.91
76285;BME280;65096;50.998;7.098;2023-03-05T06:43:35;101200.16;;;3.61;59.67
76285;BME280;65096;50.998;7.098;2023-03-05T06:46:04;101194.31;;;3.64;59.57
76285;BME280;65096;50.998;7.098;2023-03-05T06:48:31;101202.88;;;3.66;59.97
76285;BME280;65096;50.998;7.098;2023-03-05T06:50:58;101201.16;;;3.65;59.66
76285;BME280;65096;50.998;7.098;2023-03-05T06:53:25;101204.66;;;3.67;59.81
76285;BME280;65096;50.998;7.098;2023-03-05T06:55:53;101213.25;;;3.69;59.42
76285;BME280;65096;50.998;7.098;2023-03-05T06:58:20;101202.22;;;3.70;59.87
76285;BME280;65096;50.998;7.098;2023-03-05T07:00:47;101203.78;;;3.66;59.55
76285;BME280;65096;50.998;7.098;2023-03-05T07:03:14;101200.34;;;3.66;59.66
76285;BME280;65096;50.998;7.098;2023-03-05T07:05:41;101195.41;;;3.69;59.76
76285;BME280;65096;50.998;7.098;2023-03-05T07:08:08;101202.09;;;3.67;59.92
76285;BME280;65096;50.998;7.098;2023-03-05T07:10:37;101196.13;;;3.66;59.72
76285;BME280;65096;50.998;7.098;2023-03-05T07:13:05;101195.41;;;3.69;59.85
76285;BME280;65096;50.998;7.098;2023-03-05T07:15:32;101194.56;;;3.70;59.59
76285;BME280;65096;50.998;7.098;2023-03-05T07:17:59;101198.00;;;3.70;59.33
76285;BME280;65096;50.998;7.098;2023-03-05T07:20:26;101196.00;;;3.63;60.03
76285;BME280;65096;50.998;7.098;2023-03-05T07:22:53;101195.41;;;3.69;59.53
76285;BME280;65096;50.998;7.098;2023-03-05T07:25:19;101193.69;;;3.69;59.85
76285;BME280;65096;50.998;7.098;2023-03-05T07:27:48;101184.31;;;3.68;59.97
76285;BME280;65096;50.998;7.098;2023-03-05T07:30:16;101187.59;;;3.66;59.92
76285;BME280;65096;50.998;7.098;2023-03-05T07:32:43;101184.19;;;3.65;59.64
76285;BME280;65096;50.998;7.098;2023-03-05T07:35:10;101186.09;;;3.71;60.02
76285;BME280;65096;50.998;7.098;2023-03-05T07:37:37;101186.97;;;3.71;60.14
76285;BME280;65096;50.998;7.098;2023-03-05T07:40:04;101187.88;;;3.72;59.82
76285;BME280;65096;50.998;7.098;2023-03-05T07:42:32;101185.38;;;3.73;59.65
76285;BME280;65096;50.998;7.098;2023-03-05T07:44:59;101179.47;;;3.74;59.61
76285;BME280;65096;50.998;7.098;2023-03-05T07:47:27;101180.34;;;3.75;59.70
76285;BME280;65096;50.998;7.098;2023-03-05T07:49:54;101173.63;;;3.77;59.29
76285;BME280;65096;50.998;7.098;2023-03-05T07:52:21;101174.47;;;3.77;59.33
76285;BME280;65096;50.998;7.098;2023-03-05T07:54:48;101177.09;;;3.79;59.25
76285;BME280;65096;50.998;7.098;2023-03-05T07:57:15;101172.81;;;3.78;59.48
76285;BME280;65096;50.998;7.098;2023-03-05T07:59:41;101173.75;;;3.80;58.97
76285;BME280;65096;50.998;7.098;2023-03-05T08:02:09;101170.38;;;3.81;59.08
76285;BME280;65096;50.998;7.098;2023-03-05T08:04:38;101156.19;;;3.67;59.32
76285;BME280;65096;50.998;7.098;2023-03-05T08:07:04;101172.00;;;3.79;59.05
76285;BME280;65096;50.998;7.098;2023-03-05T08:09:31;101172.88;;;3.79;59.32
76285;BME280;65096;50.998;7.098;2023-03-05T08:11:58;101162.72;;;3.81;58.75
76285;BME280;65096;50.998;7.098;2023-03-05T08:14:25;101164.41;;;3.80;58.76
76285;BME280;65096;50.998;7.098;2023-03-05T08:16:51;101161.66;;;3.76;59.11
76285;BME280;65096;50.998;7.098;2023-03-05T08:19:19;101136.66;;;3.67;59.45
76285;BME280;65096;50.998;7.098;2023-03-05T08:21:47;101151.69;;;3.82;59.27
76285;BME280;65096;50.998;7.098;2023-03-05T08:24:13;101155.00;;;3.79;59.20
76285;BME280;65096;50.998;7.098;2023-03-05T08:26:40;101155.25;;;3.85;59.42
76285;BME280;65096;50.998;7.098;2023-03-05T08:29:08;101149.28;;;3.85;58.56
76285;BME280;65096;50.998;7.098;2023-03-05T08:31:36;101145.63;;;3.78;58.66
76285;BME280;65096;50.998;7.098;2023-03-05T08:34:04;101141.63;;;3.85;58.32
76285;BME280;65096;50.998;7.098;2023-03-05T08:36:31;101147.47;;;3.82;59.04
76285;BME280;65096;50.998;7.098;2023-03-05T08:38:59;101139.81;;;3.82;58.63
76285;BME280;65096;50.998;7.098;2023-03-05T08:41:26;101140.59;;;3.80;58.57
76285;BME280;65096;50.998;7.098;2023-03-05T08:43:53;101144.81;;;3.79;58.70
76285;BME280;65096;50.998;7.098;2023-03-05T08:46:20;101139.66;;;3.78;59.54
76285;BME280;65096;50.998;7.098;2023-03-05T08:48:47;101134.09;;;3.67;59.52
76285;BME280;65096;50.998;7.098;2023-03-05T08:51:16;101133.19;;;3.65;59.53
76285;BME280;65096;50.998;7.098;2023-03-05T08:53:44;101130.00;;;3.71;59.79
76285;BME280;65096;50.998;7.098;2023-03-05T08:56:15;101127.44;;;3.71;60.00
76285;BME280;65096;50.998;7.098;2023-03-05T08:58:44;101123.28;;;3.73;60.04
76285;BME280;65096;50.998;7.098;2023-03-05T09:01:12;101132.81;;;3.77;59.64
76285;BME280;65096;50.998;7.098;2023-03-05T09:03:39;101120.31;;;3.83;59.99
76285;BME280;65096;50.998;7.098;2023-03-05T09:06:07;101117.81;;;3.84;59.81
76285;BME280;65096;50.998;7.098;2023-03-05T09:08:35;101120.41;;;3.86;59.62
76285;BME280;65096;50.998;7.098;2023-03-05T09:11:03;101124.25;;;3.97;58.53
76285;BME280;65096;50.998;7.098;2023-03-05T09:13:32;101112.19;;;3.93;58.30
76285;BME280;65096;50.998;7.098;2023-03-05T09:16:00;101110.94;;;3.83;58.53
76285;BME280;65096;50.998;7.098;2023-03-05T09:18:27;101108.66;;;3.89;57.83
76285;BME280;65096;50.998;7.098;2023-03-05T09:20:54;101110.53;;;3.73;58.72
76285;BME280;65096;50.998;7.098;2023-03-05T09:23:21;101105.50;;;3.74;58.94
76285;BME280;65096;50.998;7.098;2023-03-05T09:25:48;101100.72;;;3.61;58.84
76285;BME280;65096;50.998;7.098;2023-03-05T09:28:14;101096.84;;;3.50;59.48
76285;BME280;65096;50.998;7.098;2023-03-05T09:30:43;101097.16;;;3.78;58.42
76285;BME280;65096;50.998;7.098;2023-03-05T09:33:10;101101.09;;;3.70;59.34
76285;BME280;65096;50.998;7.098;2023-03-05T09:35:37;101101.94;;;3.71;59.53
76285;BME280;65096;50.998;7.098;2023-03-05T09:38:03;101096.22;;;3.76;59.02
76285;BME280;65096;50.998;7.098;2023-03-05T09:40:37;101088.69;;;3.79;58.76
76285;BME280;65096;50.998;7.098;2023-03-05T09:43:15;101090.38;;;3.79;58.96
76285;BME280;65096;50.998;7.098;2023-03-05T09:46:00;101087.50;;;3.92;59.11
76285;BME280;65096;50.998;7.098;2023-03-05T09:48:42;101089.22;;;3.93;59.49
76285;BME280;65096;50.998;7.098;2023-03-05T09:51:17;101088.78;;;4.03;58.95
76285;BME280;65096;50.998;7.098;2023-03-05T09:53:49;101076.13;;;4.06;58.89
76285;BME280;65096;50.998;7.098;2023-03-05T09:56:22;101059.66;;;3.98;58.84
76285;BME280;65096;50.998;7.098;2023-03-05T09:58:51;101073.94;;;4.15;58.21
76285;BME280;65096;50.998;7.098;2023-03-05T10:01:23;101065.63;;;4.20;58.27
76285;BME280;65096;50.998;7.098;2023-03-05T10:03:56;101065.25;;;3.88;59.31
76285;BME280;65096;50.998;7.098;2023-03-05T10:06:25;101057.03;;;3.96;59.10
76285;BME280;65096;50.998;7.098;2023-03-05T10:08:55;101062.53;;;4.05;58.84
76285;BME280;65096;50.998;7.098;2023-03-05T10:11:37;101052.44;;;4.08;59.22
76285;BME280;65096;50.998;7.098;2023-03-05T10:14:08;101057.81;;;4.16;59.28
76285;BME280;65096;50.998;7.098;2023-03-05T10:17:02;101052.41;;;4.30;57.73
76285;BME280;65096;50.998;7.098;2023-03-05T10:19:47;101052.06;;;4.21;57.75
76285;BME280;65096;50.998;7.098;2023-03-05T10:22:18;101016.16;;;3.95;58.78
76285;BME280;65096;50.998;7.098;2023-03-05T10:24:56;101053.84;;;4.24;58.25
76285;BME280;65096;50.998;7.098;2023-03-05T10:27:34;101032.41;;;4.19;58.50
76285;BME280;65096;50.998;7.098;2023-03-05T10:30:07;101052.34;;;4.29;60.14
76285;BME280;65096;50.998;7.098;2023-03-05T10:32:49;101049.31;;;4.17;60.90
76285;BME280;65096;50.998;7.098;2023-03-05T10:35:34;101042.31;;;4.11;61.29
76285;BME280;65096;50.998;7.098;2023-03-05T10:38:22;101046.44;;;4.08;62.44
76285;BME280;65096;50.998;7.098;2023-03-05T10:40:53;101034.88;;;4.17;61.52
76285;BME280;65096;50.998;7.098;2023-03-05T10:43:26;101044.53;;;4.24;61.94
76285;BME280;65096;50.998;7.098;2023-03-05T10:45:57;101044.47;;;4.23;61.43
76285;BME280;65096;50.998;7.098;2023-03-05T10:48:33;101041.59;;;4.36;62.13
76285;BME280;65096;50.998;7.098;2023-03-05T10:51:08;101032.13;;;4.33;62.02
76285;BME280;65096;50.998;7.098;2023-03-05T10:53:47;101031.38;;;4.36;62.27
76285;BME280;65096;50.998;7.098;2023-03-05T10:56:20;101037.44;;;4.39;62.34
76285;BME280;65096;50.998;7.098;2023-03-05T10:58:47;101026.88;;;4.30;63.19
76285;BME280;65096;50.998;7.098;2023-03-05T11:01:22;101018.38;;;4.08;63.69
76285;BME280;65096;50.998;7.098;2023-03-05T11:03:51;101028.91;;;4.17;63.09
76285;BME280;65096;50.998;7.098;2023-03-05T11:06:27;101023.22;;;4.24;63.36
76285;BME280;65096;50.998;7.098;2023-03-05T11:08:54;101021.50;;;4.23;62.15
76285;BME280;65096;50.998;7.098;2023-03-05T11:11:22;101021.59;;;4.26;61.98
76285;BME280;65096;50.998;7.098;2023-03-05T11:13:53;101014.25;;;4.33;61.89
76285;BME280;65096;50.998;7.098;2023-03-05T11:16:23;101012.63;;;4.35;62.38
76285;BME280;65096;50.998;7.098;2023-03-05T11:19:14;101013.94;;;4.48;63.43
76285;BME280;65096;50.998;7.098;2023-03-05T11:21:42;101003.66;;;4.46;62.24
76285;BME280;65096;50.998;7.098;2023-03-05T11:24:11;100996.00;;;4.46;62.17
76285;BME280;65096;50.998;7.098;2023-03-05T11:26:45;101003.81;;;4.51;63.22
76285;BME280;65096;50.998;7.098;2023-03-05T11:29:19;100995.22;;;4.49;63.89
76285;BME280;65096;50.998;7.098;2023-03-05T11:31:46;100990.84;;;4.45;63.19
76285;BME280;65096;50.998;7.098;2023-03-05T11:34:28;100998.19;;;4.36;64.84
76285;BME280;65096;50.998;7.098;2023-03-05T11:37:03;100995.75;;;4.39;63.16
76285;BME280;65096;50.998;7.098;2023-03-05T11:39:32;100997.47;;;4.40;62.86
76285;BME280;65096;50.998;7.098;2023-03-05T11:42:04;100999.56;;;4.28;64.39
76285;BME280;65096;50.998;7.098;2023-03-05T11:44:33;101004.09;;;4.35;62.57
76285;BME280;65096;50.998;7.098;2023-03-05T11:47:15;100991.38;;;4.36;63.94
76285;BME280;65096;50.998;7.098;2023-03-05T11:49:47;100988.53;;;4.29;63.33
76285;BME280;65096;50.998;7.098;2023-03-05T11:52:18;100987.06;;;4.34;64.00
76285;BME280;65096;50.998;7.098;2023-03-05T11:54:57;100964.22;;;4.15;64.30
76285;BME280;65096;50.998;7.098;2023-03-05T11:57:28;100978.44;;;4.32;63.98
76285;BME280;65096;50.998;7.098;2023-03-05T11:59:59;100974.16;;;4.31;64.62
76285;BME280;65096;50.998;7.098;2023-03-05T12:02:32;100965.66;;;4.32;63.78
76285;BME280;65096;50.998;7.098;2023-03-05T12:05:00;100963.06;;;4.30;63.82
76285;BME280;65096;50.998;7.098;2023-03-05T12:07:33;100958.19;;;4.36;64.15
76285;BME280;65096;50.998;7.098;2023-03-05T12:10:01;100947.94;;;4.35;63.67
76285;BME280;65096;50.998;7.098;2023-03-05T12:12:34;100947.38;;;4.43;64.00
76285;BME280;65096;50.998;7.098;2023-03-05T12:18:04;100924.06;;;4.34;63.99
76285;BME280;65096;50.998;7.098;2023-03-05T12:20:41;100933.25;;;4.53;62.66
76285;BME280;65096;50.998;7.098;2023-03-05T12:23:13;100912.19;;;4.35;63.80
76285;BME280;65096;50.998;7.098;2023-03-05T12:25:45;100927.91;;;4.45;63.68
76285;BME280;65096;50.998;7.098;2023-03-05T12:28:14;100908.94;;;4.39;63.20
76285;BME280;65096;50.998;7.098;2023-03-05T12:30:56;100910.31;;;4.54;63.76
76285;BME280;65096;50.998;7.098;2023-03-05T12:33:32;100906.78;;;4.51;63.34
76285;BME280;65096;50.998;7.098;2023-03-05T12:36:33;100902.81;;;4.59;63.93
76285;BME280;65096;50.998;7.098;2023-03-05T12:39:00;100900.22;;;4.57;63.97
76285;BME280;65096;50.998;7.098;2023-03-05T12:41:36;100890.19;;;4.63;63.49
76285;BME280;65096;50.998;7.098;2023-03-05T12:44:24;100888.56;;;4.65;63.75
76285;BME280;65096;50.998;7.098;2023-03-05T12:47:16;100883.53;;;4.68;63.99
76285;BME280;65096;50.998;7.098;2023-03-05T12:49:48;100874.09;;;4.66;62.78
76285;BME280;65096;50.998;7.098;2023-03-05T12:52:25;100872.56;;;4.71;63.13
76285;BME280;65096;50.998;7.098;2023-03-05T12:55:00;100866.44;;;4.66;63.11
76285;BME280;65096;50.998;7.098;2023-03-05T12:57:29;100870.03;;;4.71;62.37
76285;BME280;65096;50.998;7.098;2023-03-05T13:00:00;100861.53;;;4.72;62.27
76285;BME280;65096;50.998;7.098;2023-03-05T13:02:33;100853.03;;;4.73;63.17
76285;BME280;65096;50.998;7.098;2023-03-05T13:05:06;100864.91;;;4.71;64.31
76285;BME280;65096;50.998;7.098;2023-03-05T13:07:37;100855.59;;;4.73;63.28
76285;BME280;65096;50.998;7.098;2023-03-05T13:10:04;100851.53;;;4.79;63.79
76285;BME280;65096;50.998;7.098;2023-03-05T13:12:31;100848.19;;;4.80;63.73
76285;BME280;65096;50.998;7.098;2023-03-05T13:15:00;100842.19;;;4.80;63.21